createdAt,value
2022-09-13T00:02:16.822Z,86.41
2022-09-13T00:04:44.480Z,86.49
2022-09-13T00:07:12.581Z,86.49
2022-09-13T00:09:40.202Z,86.49
2022-09-13T00:12:08.581Z,86.40
2022-09-13T00:14:36.240Z,86.00
2022-09-13T00:17:04.422Z,85.95
2022-09-13T00:19:33.751Z,85.92
2022-09-13T00:22:01.864Z,85.52
2022-09-13T00:24:29.511Z,85.35
2022-09-13T00:26:57.768Z,85.43
2022-09-13T00:29:25.532Z,85.79
2022-09-13T00:31:53.907Z,85.87
2022-09-13T00:34:21.527Z,86.03
2022-09-13T00:36:50.844Z,86.49
2022-09-13T00:39:18.478Z,86.74
2022-09-13T00:41:46.116Z,86.58
2022-09-13T00:44:50.783Z,86.55
2022-09-13T00:47:22.763Z,86.83
2022-09-13T00:49:53.875Z,87.04
2022-09-13T00:52:25.655Z,86.93
2022-09-13T00:54:59.506Z,86.86
2022-09-13T00:57:28.265Z,86.95
2022-09-13T01:00:01.548Z,86.97
2022-09-13T01:02:30.741Z,86.90
2022-09-13T01:04:58.472Z,86.78
2022-09-13T01:07:28.170Z,86.86
2022-09-13T01:09:55.818Z,86.91
2022-09-13T01:12:33.518Z,87.24
2022-09-13T01:15:05.112Z,86.88
2022-09-13T01:17:34.353Z,86.85
2022-09-13T01:20:03.908Z,86.93
2022-09-13T01:23:13.243Z,87.15
2022-09-13T01:26:25.276Z,87.00
2022-09-13T01:29:30.231Z,86.56
2022-09-13T01:32:10.459Z,86.21
2022-09-13T01:34:54.255Z,86.11
2022-09-13T01:37:38.973Z,86.32
2022-09-13T01:40:17.463Z,86.35
2022-09-13T01:43:08.387Z,86.51
2022-09-13T01:45:46.709Z,86.56
2022-09-13T01:48:22.485Z,86.07
2022-09-13T01:50:59.904Z,85.25
2022-09-13T01:53:36.763Z,85.16
2022-09-13T01:56:10.716Z,85.09
2022-09-13T01:58:42.855Z,85.36
2022-09-13T02:01:18.170Z,85.80
2022-09-13T02:03:53.750Z,86.15
2022-09-13T02:06:25.633Z,86.12
2022-09-13T02:08:57.593Z,85.69
2022-09-13T02:11:25.902Z,85.42
2022-09-13T02:13:59.947Z,85.93
2022-09-13T02:16:31.846Z,86.39
2022-09-13T02:19:08.051Z,86.81
2022-09-13T02:21:40.582Z,86.90
2022-09-13T02:24:12.919Z,87.27
2022-09-13T02:26:42.897Z,86.87
2022-09-13T02:29:16.895Z,86.63
2022-09-13T02:31:48.783Z,86.60
2022-09-13T02:34:22.482Z,86.99
2022-09-13T02:36:54.182Z,86.81
2022-09-13T02:39:26.387Z,87.16
2022-09-13T02:41:57.735Z,86.91
2022-09-13T02:44:34.451Z,86.84
2022-09-13T02:47:23.131Z,86.16
2022-09-13T02:49:58.691Z,86.25
2022-09-13T02:52:38.188Z,86.17
2022-09-13T02:55:16.560Z,86.35
2022-09-13T02:57:53.131Z,86.26
2022-09-13T03:00:20.800Z,86.76
2022-09-13T03:02:50.521Z,86.93
2022-09-13T03:05:19.487Z,86.94
2022-09-13T03:07:47.880Z,87.34
2022-09-13T03:10:16.991Z,87.06
2022-09-13T03:13:19.488Z,86.96
2022-09-13T03:16:00.410Z,86.86
2022-09-13T03:18:44.970Z,86.97
2022-09-13T03:21:29.212Z,87.58
2022-09-13T03:24:09.904Z,87.54
2022-09-13T03:26:46.766Z,87.46
2022-09-13T03:29:31.732Z,87.67
2022-09-13T03:32:07.949Z,87.75
2022-09-13T03:34:49.015Z,87.80
2022-09-13T03:37:26.888Z,87.82
2022-09-13T03:40:00.588Z,87.70
2022-09-13T03:42:35.954Z,87.32
2022-09-13T03:45:06.107Z,87.44
2022-09-13T03:47:37.608Z,87.27
2022-09-13T03:50:08.328Z,87.57
2022-09-13T03:52:41.241Z,87.40
2022-09-13T03:55:11.206Z,87.34
2022-09-13T03:57:39.107Z,87.73
2022-09-13T04:00:07.739Z,88.25
2022-09-13T04:02:39.492Z,87.62
2022-09-13T04:05:07.817Z,87.36
2022-09-13T04:07:37.107Z,87.64
2022-09-13T04:10:06.083Z,87.61
2022-09-13T04:12:34.040Z,87.56
2022-09-13T04:15:01.847Z,87.33
2022-09-13T04:17:29.770Z,87.11
2022-09-13T04:19:57.715Z,87.11
2022-09-13T04:22:25.320Z,87.33
2022-09-13T04:24:57.195Z,87.14
2022-09-13T04:27:26.764Z,87.31
2022-09-13T04:29:54.370Z,87.53
2022-09-13T04:32:22.347Z,87.70
2022-09-13T04:34:49.965Z,87.35
2022-09-13T04:37:18.082Z,87.66
2022-09-13T04:39:45.716Z,87.84
2022-09-13T04:42:14.828Z,87.47
2022-09-13T04:44:43.871Z,87.44
2022-09-13T04:47:11.791Z,87.38
2022-09-13T04:49:39.988Z,87.18
2022-09-13T04:52:08.139Z,87.04
2022-09-13T04:54:35.774Z,86.85
2022-09-13T04:57:03.672Z,86.92
2022-09-13T04:59:33.351Z,87.08
2022-09-13T05:02:01.096Z,87.03
2022-09-13T05:04:28.798Z,86.93
2022-09-13T05:06:56.414Z,87.11
2022-09-13T05:09:24.412Z,87.14
2022-09-13T05:11:52.042Z,87.13
2022-09-13T05:14:19.692Z,87.25
2022-09-13T05:16:48.673Z,86.99
2022-09-13T05:19:16.355Z,87.14
2022-09-13T05:21:43.955Z,86.77
2022-09-13T05:24:12.549Z,86.45
2022-09-13T05:26:40.322Z,85.83
2022-09-13T05:29:08.099Z,85.33
2022-09-13T05:31:37.829Z,84.64
2022-09-13T05:34:10.647Z,84.81
2022-09-13T05:36:38.584Z,84.87
2022-09-13T05:41:55.913Z,85.92
2022-09-13T05:44:23.873Z,86.29
2022-09-13T05:46:51.582Z,85.59
2022-09-13T05:49:20.923Z,85.44
2022-09-13T05:51:48.544Z,85.13
2022-09-13T05:54:16.710Z,84.55
2022-09-13T05:56:44.316Z,84.08
2022-09-13T05:59:15.960Z,84.10
2022-09-13T06:01:43.637Z,83.79
2022-09-13T06:04:12.798Z,84.29
2022-09-13T06:06:42.133Z,84.93
2022-09-13T06:09:12.574Z,85.05
2022-09-13T06:11:40.279Z,84.67
2022-09-13T06:14:08.404Z,85.03
2022-09-13T06:16:36.788Z,85.42
2022-09-13T06:19:05.044Z,85.35
2022-09-13T06:21:32.724Z,85.47
2022-09-13T06:24:02.138Z,85.90
2022-09-13T06:26:29.819Z,85.19
2022-09-13T06:28:58.826Z,84.91
2022-09-13T06:31:28.167Z,84.42
2022-09-13T06:33:58.200Z,84.16
2022-09-13T06:36:26.338Z,83.35
2022-09-13T06:38:55.531Z,83.27
2022-09-13T06:41:27.136Z,82.48
2022-09-13T06:43:56.519Z,81.64
2022-09-13T06:46:25.485Z,81.11
2022-09-13T06:48:54.439Z,81.18
2022-09-13T06:51:24.229Z,80.95
2022-09-13T06:53:56.441Z,80.58
2022-09-13T06:56:27.239Z,79.68
2022-09-13T06:58:57.902Z,78.97
2022-09-13T07:01:28.046Z,78.14
2022-09-13T07:04:01.321Z,77.61
2022-09-13T07:06:31.080Z,77.09
2022-09-13T07:09:02.238Z,75.97
2022-09-13T07:11:33.516Z,74.58
2022-09-13T07:14:01.960Z,75.59
2022-09-13T07:16:31.364Z,75.84
2022-09-13T07:19:01.328Z,75.42
2022-09-13T07:21:30.027Z,74.28
2022-09-13T07:23:58.548Z,74.23
2022-09-13T07:26:27.888Z,73.79
2022-09-13T07:29:00.778Z,73.05
2022-09-13T07:31:30.437Z,72.60
2022-09-13T07:34:00.263Z,72.78
2022-09-13T07:36:29.550Z,72.51
2022-09-13T07:38:58.563Z,72.46
2022-09-13T07:41:28.330Z,73.52
2022-09-13T07:43:58.899Z,72.59
2022-09-13T07:46:28.796Z,72.00
2022-09-13T07:48:57.988Z,70.89
2022-09-13T07:51:27.655Z,70.42
2022-09-13T07:53:57.732Z,70.09
2022-09-13T07:56:28.851Z,69.22
2022-09-13T07:59:00.846Z,69.26
2022-09-13T08:01:30.948Z,69.38
2022-09-13T08:04:00.513Z,67.86
2022-09-13T08:06:29.863Z,67.91
2022-09-13T08:08:57.834Z,69.05
2022-09-13T08:11:29.715Z,69.05
2022-09-13T08:13:58.983Z,68.45
2022-09-13T08:16:28.981Z,68.44
2022-09-13T08:18:59.006Z,67.49
2022-09-13T08:21:27.653Z,67.26
2022-09-13T08:23:57.050Z,67.77
2022-09-13T08:26:25.491Z,67.61
2022-09-13T08:28:59.101Z,66.72
2022-09-13T08:31:27.602Z,65.61
2022-09-13T08:33:55.973Z,66.69
2022-09-13T08:36:25.207Z,66.32
2022-09-13T08:38:54.453Z,65.10
2022-09-13T08:41:35.010Z,66.36
2022-09-13T08:44:11.124Z,65.62
2022-09-13T08:46:42.783Z,64.54
2022-09-13T08:49:18.503Z,65.00
2022-09-13T08:51:49.694Z,65.68
2022-09-13T08:54:19.306Z,65.53
2022-09-13T08:56:53.989Z,63.17
2022-09-13T08:59:42.153Z,64.99
2022-09-13T09:02:21.912Z,62.96
2022-09-13T09:04:56.339Z,61.38
2022-09-13T09:07:27.882Z,61.55
2022-09-13T09:09:59.274Z,63.15
2022-09-13T09:12:35.258Z,62.85
2022-09-13T09:15:14.775Z,61.61
2022-09-13T09:17:48.906Z,61.40
2022-09-13T09:20:28.039Z,61.40
2022-09-13T09:22:56.709Z,60.55
2022-09-13T09:25:27.136Z,60.80
2022-09-13T09:27:55.172Z,60.61
2022-09-13T09:30:24.455Z,59.77
2022-09-13T09:33:07.070Z,58.89
2022-09-13T09:35:47.607Z,58.38
2022-09-13T09:38:43.956Z,57.83
2022-09-13T09:41:18.415Z,56.48
2022-09-13T09:43:52.774Z,58.78
2022-09-13T09:46:29.188Z,58.87
2022-09-13T09:49:00.166Z,56.07
2022-09-13T09:51:30.202Z,54.88
2022-09-13T09:54:05.125Z,54.22
2022-09-13T09:56:34.203Z,54.41
2022-09-13T09:59:02.564Z,53.54
2022-09-13T10:01:33.767Z,52.66
2022-09-13T10:04:08.633Z,53.87
2022-09-13T10:06:39.268Z,53.24
2022-09-13T10:09:15.878Z,50.58
2022-09-13T10:11:50.259Z,51.34
2022-09-13T10:14:42.051Z,50.28
2022-09-13T10:17:19.676Z,47.84
2022-09-13T10:19:59.280Z,49.80
2022-09-13T10:22:27.614Z,50.31
2022-09-13T10:24:55.940Z,48.95
2022-09-13T10:27:33.864Z,49.55
2022-09-13T10:30:04.982Z,50.86
2022-09-13T10:32:34.977Z,49.85
2022-09-13T10:35:10.458Z,47.51
2022-09-13T10:37:43.792Z,49.18
2022-09-13T10:40:20.980Z,47.16
2022-09-13T10:42:54.097Z,47.41
2022-09-13T10:45:26.650Z,47.88
2022-09-13T10:47:59.244Z,46.48
2022-09-13T10:50:28.449Z,46.33
2022-09-13T10:52:57.386Z,47.97
2022-09-13T10:55:40.755Z,48.41
2022-09-13T10:58:19.922Z,49.66
2022-09-13T11:01:16.284Z,47.77
2022-09-13T11:03:59.697Z,47.65
2022-09-13T11:06:33.971Z,47.49
2022-09-13T11:09:09.927Z,48.07
2022-09-13T11:11:44.521Z,47.29
2022-09-13T11:14:23.227Z,46.81
2022-09-13T11:17:01.476Z,49.23
2022-09-13T11:19:46.684Z,46.81
2022-09-13T11:22:28.434Z,47.71
2022-09-13T11:25:07.404Z,48.22
2022-09-13T11:27:44.388Z,51.45
2022-09-13T11:30:17.059Z,48.70
2022-09-13T11:33:05.980Z,50.98
2022-09-13T11:35:59.358Z,49.68
2022-09-13T11:38:37.705Z,51.00
2022-09-13T11:41:14.962Z,50.97
2022-09-13T11:43:55.867Z,51.60
2022-09-13T11:46:30.698Z,51.53
2022-09-13T11:49:31.411Z,52.34
2022-09-13T11:52:10.719Z,52.00
2022-09-13T11:55:02.023Z,51.45
2022-09-13T11:57:35.478Z,50.33
2022-09-13T12:00:08.434Z,49.70
2022-09-13T12:02:43.868Z,53.07
2022-09-13T12:05:24.558Z,50.39
2022-09-13T12:07:58.841Z,52.53
2022-09-13T12:10:30.874Z,53.99
2022-09-13T12:13:01.730Z,52.46
2022-09-13T12:15:37.162Z,51.96
2022-09-13T12:18:12.800Z,51.57
2022-09-13T12:20:45.310Z,50.72
2022-09-13T12:23:24.998Z,53.00
2022-09-13T12:25:57.225Z,53.69
2022-09-13T12:28:29.060Z,52.82
2022-09-13T12:31:01.447Z,53.67
2022-09-13T12:33:29.480Z,51.59
2022-09-13T12:36:16.991Z,51.61
2022-09-13T12:39:11.927Z,52.45
2022-09-13T12:41:51.052Z,51.08
2022-09-13T12:44:35.990Z,53.78
2022-09-13T12:47:28.791Z,54.15
2022-09-13T12:50:41.990Z,50.51
2022-09-13T12:53:14.396Z,51.77
2022-09-13T12:55:59.790Z,51.43
2022-09-13T12:58:46.636Z,50.21
2022-09-13T13:01:17.942Z,51.23
2022-09-13T13:03:54.287Z,51.01
2022-09-13T13:06:29.186Z,51.56
2022-09-13T13:09:00.403Z,50.30
2022-09-13T13:11:41.533Z,49.22
2022-09-13T13:14:29.715Z,51.44
2022-09-13T13:17:31.193Z,49.74
2022-09-13T13:19:58.794Z,51.32
2022-09-13T13:22:52.727Z,51.71
2022-09-13T13:25:33.637Z,52.57
2022-09-13T13:28:03.019Z,52.09
2022-09-13T13:30:56.335Z,53.33
2022-09-13T13:33:29.561Z,52.12
2022-09-13T13:35:57.264Z,53.81
2022-09-13T13:38:43.142Z,52.41
2022-09-13T13:41:39.794Z,52.12
2022-09-13T13:44:45.200Z,55.18
2022-09-13T13:47:46.908Z,51.42
2022-09-13T13:50:18.592Z,51.45
2022-09-13T13:53:03.321Z,53.02
2022-09-13T13:55:42.382Z,54.81
2022-09-13T13:58:28.223Z,53.14
2022-09-13T14:00:56.914Z,52.49
2022-09-13T14:03:49.710Z,54.50
2022-09-13T14:06:24.357Z,54.48
2022-09-13T14:09:03.375Z,53.05
2022-09-13T14:11:43.675Z,54.05
2022-09-13T14:14:28.314Z,55.67
2022-09-13T14:17:15.601Z,54.32
2022-09-13T14:19:45.321Z,54.79
2022-09-13T14:22:17.783Z,55.52
2022-09-13T14:24:48.677Z,56.12
2022-09-13T14:27:20.461Z,56.39
2022-09-13T14:29:50.728Z,56.00
2022-09-13T14:32:22.617Z,57.25
2022-09-13T14:34:59.011Z,57.78
2022-09-13T14:37:30.965Z,57.90
2022-09-13T14:40:01.966Z,57.28
2022-09-13T14:42:40.161Z,58.34
2022-09-13T14:45:13.532Z,57.82
2022-09-13T14:47:49.947Z,57.51
2022-09-13T14:50:21.763Z,57.08
2022-09-13T14:52:54.352Z,58.46
2022-09-13T14:55:27.455Z,59.52
2022-09-13T14:58:02.124Z,58.67
2022-09-13T15:00:30.766Z,59.33
2022-09-13T15:03:02.705Z,58.51
2022-09-13T15:05:33.360Z,58.01
2022-09-13T15:08:45.652Z,58.06
2022-09-13T15:11:17.688Z,58.01
2022-09-13T15:13:46.039Z,57.82
2022-09-13T15:16:27.451Z,58.42
2022-09-13T15:19:16.880Z,58.24
2022-09-13T15:21:45.584Z,59.14
2022-09-13T15:24:23.036Z,59.50
2022-09-13T15:27:03.602Z,60.07
2022-09-13T15:29:34.724Z,60.33
2022-09-13T15:32:03.910Z,60.14
2022-09-13T15:34:31.920Z,60.16
2022-09-13T15:37:10.068Z,60.21
2022-09-13T15:39:50.505Z,60.97
2022-09-13T15:42:19.211Z,60.84
2022-09-13T15:44:46.838Z,60.58
2022-09-13T15:47:18.599Z,60.05
2022-09-13T15:49:50.967Z,60.20
2022-09-13T15:52:19.761Z,60.43
2022-09-13T15:54:50.826Z,60.99
2022-09-13T15:57:22.337Z,60.50
2022-09-13T15:59:50.107Z,59.95
2022-09-13T16:02:21.169Z,60.19
2022-09-13T16:04:49.528Z,60.57
2022-09-13T16:07:17.742Z,60.96
2022-09-13T16:09:46.013Z,60.91
2022-09-13T16:12:16.172Z,61.60
2022-09-13T16:14:43.858Z,62.00
2022-09-13T16:17:15.198Z,62.18
2022-09-13T16:19:43.263Z,63.04
2022-09-13T16:22:12.949Z,62.61
2022-09-13T16:24:40.983Z,62.29
2022-09-13T16:27:10.715Z,62.41
2022-09-13T16:29:39.906Z,62.15
2022-09-13T16:32:07.819Z,62.88
2022-09-13T16:34:35.670Z,63.62
2022-09-13T16:37:04.515Z,64.22
2022-09-13T16:39:32.164Z,64.64
2022-09-13T16:42:00.316Z,64.95
2022-09-13T16:44:27.926Z,65.20
2022-09-13T16:46:57.724Z,65.32
2022-09-13T16:49:26.327Z,65.53
2022-09-13T16:51:54.054Z,65.46
2022-09-13T16:54:21.679Z,65.56
2022-09-13T16:56:49.283Z,65.76
2022-09-13T16:59:17.262Z,65.65
2022-09-13T17:01:44.981Z,66.01
2022-09-13T17:04:14.563Z,66.37
2022-09-13T17:06:42.205Z,66.83
2022-09-13T17:09:10.421Z,67.40
2022-09-13T17:11:39.740Z,67.92
2022-09-13T17:14:09.946Z,68.59
2022-09-13T17:16:39.680Z,68.21
2022-09-13T17:19:13.208Z,67.96
2022-09-13T17:21:42.575Z,68.28
2022-09-13T17:24:13.537Z,67.73
2022-09-13T17:26:41.595Z,67.27
2022-09-13T17:29:10.057Z,66.78
2022-09-13T17:31:37.739Z,66.72
2022-09-13T17:34:06.178Z,66.86
2022-09-13T17:36:33.791Z,67.67
2022-09-13T17:39:03.534Z,68.88
2022-09-13T17:41:31.184Z,70.66
2022-09-13T17:44:00.395Z,71.98
2022-09-13T17:46:30.106Z,74.16
2022-09-13T17:49:00.230Z,75.82
2022-09-13T17:51:30.119Z,77.28
2022-09-13T17:54:00.884Z,78.32
2022-09-13T17:56:31.996Z,79.53
2022-09-13T17:59:09.836Z,80.04
2022-09-13T18:01:39.571Z,80.35
2022-09-13T18:04:08.535Z,80.20
2022-09-13T18:06:36.620Z,80.70
2022-09-13T18:09:05.551Z,82.94
2022-09-13T18:11:34.526Z,82.63
2022-09-13T18:14:02.625Z,83.22
2022-09-13T18:16:31.337Z,83.28
2022-09-13T18:19:02.145Z,81.28
2022-09-13T18:21:30.319Z,81.10
2022-09-13T18:23:59.985Z,80.97
2022-09-13T18:26:29.911Z,80.81
2022-09-13T18:29:01.759Z,81.39
2022-09-13T18:31:31.199Z,81.33
2022-09-13T18:34:01.621Z,81.49
2022-09-13T18:36:30.834Z,81.44
2022-09-13T18:38:58.919Z,81.05
2022-09-13T18:41:31.159Z,80.84
2022-09-13T18:44:00.445Z,81.43
2022-09-13T18:46:31.716Z,83.50
2022-09-13T18:49:00.156Z,84.03
2022-09-13T18:51:29.932Z,84.10
2022-09-13T18:53:59.445Z,84.46
2022-09-13T18:56:27.588Z,82.54
2022-09-13T18:58:56.883Z,82.59
2022-09-13T19:01:28.449Z,82.55
2022-09-13T19:03:59.079Z,82.15
2022-09-13T19:06:28.987Z,82.02
2022-09-13T19:08:58.134Z,81.98
2022-09-13T19:11:45.722Z,82.58
2022-09-13T19:14:16.055Z,82.39
2022-09-13T19:16:45.339Z,82.40
2022-09-13T19:19:13.452Z,82.43
2022-09-13T19:21:41.198Z,82.94
2022-09-13T19:24:16.299Z,82.61
2022-09-13T19:26:46.063Z,82.72
2022-09-13T19:29:15.511Z,82.58
2022-09-13T19:31:47.503Z,82.63
2022-09-13T19:34:17.355Z,82.52
2022-09-13T19:36:45.559Z,83.59
2022-09-13T19:39:13.787Z,83.60
2022-09-13T19:41:42.405Z,83.47
2022-09-13T19:44:12.370Z,83.40
2022-09-13T19:46:41.986Z,83.77
2022-09-13T19:49:14.436Z,83.56
2022-09-13T19:51:46.447Z,83.67
2022-09-13T19:54:18.680Z,84.04
2022-09-13T19:56:46.821Z,84.02
2022-09-13T19:59:16.714Z,84.29
2022-09-13T20:01:45.965Z,84.52
2022-09-13T20:04:17.067Z,84.65
2022-09-13T20:06:46.632Z,84.41
2022-09-13T20:09:16.357Z,84.62
2022-09-13T20:11:45.373Z,84.73
2022-09-13T20:14:14.711Z,84.63
2022-09-13T20:16:44.029Z,84.73
2022-09-13T20:19:39.785Z,84.73
2022-09-13T20:22:07.302Z,85.01
2022-09-13T20:24:34.926Z,85.48
2022-09-13T20:27:02.857Z,86.87
2022-09-13T20:29:31.425Z,86.92
2022-09-13T20:31:59.901Z,86.13
2022-09-13T20:34:29.371Z,86.66
2022-09-13T20:36:57.045Z,86.23
2022-09-13T20:39:24.654Z,86.67
2022-09-13T20:41:52.413Z,86.66
2022-09-13T20:44:20.044Z,86.77
2022-09-13T20:46:47.659Z,86.76
2022-09-13T20:49:15.319Z,86.91
2022-09-13T20:51:45.997Z,86.85
2022-09-13T20:54:13.630Z,86.39
2022-09-13T20:56:41.692Z,86.41
2022-09-13T20:59:10.050Z,86.46
2022-09-13T21:01:37.706Z,86.38
2022-09-13T21:04:05.862Z,86.43
2022-09-13T21:06:40.002Z,86.64
2022-09-13T21:09:07.994Z,86.44
2022-09-13T21:11:38.545Z,86.69
2022-09-13T21:14:08.337Z,86.61
2022-09-13T21:16:37.942Z,86.73
2022-09-13T21:19:06.339Z,87.82
2022-09-13T21:21:37.150Z,88.45
2022-09-13T21:24:08.606Z,87.77
2022-09-13T21:26:39.950Z,87.74
2022-09-13T21:29:07.562Z,87.38
2022-09-13T21:31:35.762Z,87.47
2022-09-13T21:34:05.498Z,87.76
2022-09-13T21:36:35.459Z,87.68
2022-09-13T21:39:03.420Z,87.54
2022-09-13T21:41:31.998Z,87.49
2022-09-13T21:44:01.264Z,87.41
2022-09-13T21:46:31.846Z,87.99
2022-09-13T21:49:01.529Z,87.96
2022-09-13T21:51:31.258Z,87.73
2022-09-13T21:54:02.114Z,87.94
2022-09-13T21:56:31.975Z,87.91
2022-09-13T21:59:02.767Z,87.74
2022-09-13T22:01:32.698Z,87.74
2022-09-13T22:04:01.323Z,88.36
2022-09-13T22:06:33.542Z,88.06
2022-09-13T22:09:03.729Z,88.05
2022-09-13T22:11:33.240Z,87.97
2022-09-13T22:14:02.495Z,87.89
2022-09-13T22:16:33.732Z,87.63
2022-09-13T22:19:08.488Z,88.48
2022-09-13T22:21:40.582Z,88.32
2022-09-13T22:24:09.579Z,88.02
2022-09-13T22:26:39.914Z,87.95
2022-09-13T22:29:09.708Z,87.89
2022-09-13T22:31:40.097Z,88.02
2022-09-13T22:34:11.015Z,88.14
2022-09-13T22:36:38.968Z,88.25
2022-09-13T22:39:06.987Z,88.12
2022-09-13T22:41:35.456Z,88.14
2022-09-13T22:44:04.282Z,88.25
2022-09-13T22:46:34.587Z,88.08
2022-09-13T22:49:03.005Z,87.60
2022-09-13T22:51:30.729Z,87.76
2022-09-13T22:54:00.530Z,87.73
2022-09-13T22:56:32.909Z,87.91
2022-09-13T22:59:02.450Z,88.22
2022-09-13T23:01:31.736Z,88.43
2022-09-13T23:04:02.599Z,88.15
2022-09-13T23:06:30.523Z,87.84
2022-09-13T23:09:00.728Z,87.33
2022-09-13T23:11:30.179Z,88.20
2022-09-13T23:14:02.014Z,88.42
2022-09-13T23:16:32.046Z,88.60
2022-09-13T23:19:02.278Z,88.88
2022-09-13T23:21:32.523Z,88.69
2022-09-13T23:24:01.931Z,88.48
2022-09-13T23:26:29.856Z,88.40
2022-09-13T23:29:00.185Z,88.73
2022-09-13T23:31:29.646Z,89.08
2022-09-13T23:34:02.086Z,88.49
2022-09-13T23:36:34.552Z,88.71
2022-09-13T23:39:03.837Z,89.05
2022-09-13T23:41:33.121Z,89.08
2022-09-13T23:44:00.973Z,88.77
2022-09-13T23:46:29.005Z,88.91
2022-09-13T23:48:57.502Z,89.79
2022-09-13T23:51:27.297Z,89.84
2022-09-13T23:53:58.511Z,89.16
2022-09-13T23:56:27.801Z,89.18
2022-09-13T23:58:57.586Z,89.33
